sensor_id;sensor_type;location;lat;lon;timestamp;P1;durP1;ratioP1;P2;durP2;ratioP2
19816;SDS011;68323;49.394;8.434;2023-06-22T00:02:15;11.95;;;8.82;;
19816;SDS011;68323;49.394;8.434;2023-06-22T00:04:41;14.77;;;8.98;;
19816;SDS011;68323;49.394;8.434;2023-06-22T00:07:06;14.15;;;8.65;;
19816;SDS011;68323;49.394;8.434;2023-06-22T00:09:33;10.68;;;9.10;;
19816;SDS011;68323;49.394;8.434;2023-06-22T00:11:59;11.27;;;9.35;;
19816;SDS011;68323;49.394;8.434;2023-06-22T00:14:24;9.75;;;8.75;;
19816;SDS011;68323;49.394;8.434;2023-06-22T00:16:50;18.52;;;10.07;;
19816;SDS011;68323;49.394;8.434;2023-06-22T00:19:19;19.85;;;10.80;;
19816;SDS011;68323;49.394;8.434;2023-06-22T00:21:46;16.48;;;10.13;;
19816;SDS011;68323;49.394;8.434;2023-06-22T00:24:13;16.50;;;10.73;;
19816;SDS011;68323;49.394;8.434;2023-06-22T00:26:38;13.80;;;9.55;;
19816;SDS011;68323;49.394;8.434;2023-06-22T00:29:04;13.35;;;9.73;;
19816;SDS011;68323;49.394;8.434;2023-06-22T00:31:29;12.77;;;8.80;;
19816;SDS011;68323;49.394;8.434;2023-06-22T00:33:55;8.88;;;8.00;;
19816;SDS011;68323;49.394;8.434;2023-06-22T00:36:20;13.10;;;8.35;;
19816;SDS011;68323;49.394;8.434;2023-06-22T00:38:46;12.57;;;9.00;;
19816;SDS011;68323;49.394;8.434;2023-06-22T00:41:12;18.00;;;9.85;;
19816;SDS011;68323;49.394;8.434;2023-06-22T00:43:37;15.25;;;9.95;;
19816;SDS011;68323;49.394;8.434;2023-06-22T00:46:03;14.45;;;9.63;;
19816;SDS011;68323;49.394;8.434;2023-06-22T00:48:28;12.93;;;8.60;;
19816;SDS011;68323;49.394;8.434;2023-06-22T00:50:54;14.55;;;8.88;;
19816;SDS011;68323;49.394;8.434;2023-06-22T00:53:21;18.20;;;10.32;;
19816;SDS011;68323;49.394;8.434;2023-06-22T00:55:46;16.45;;;11.23;;
19816;SDS011;68323;49.394;8.434;2023-06-22T00:58:12;19.50;;;12.10;;
19816;SDS011;68323;49.394;8.434;2023-06-22T01:00:39;22.42;;;12.85;;
19816;SDS011;68323;49.394;8.434;2023-06-22T01:03:06;17.88;;;12.27;;
19816;SDS011;68323;49.394;8.434;2023-06-22T01:05:34;13.82;;;10.70;;
19816;SDS011;68323;49.394;8.434;2023-06-22T01:10:57;20.35;;;11.55;;
19816;SDS011;68323;49.394;8.434;2023-06-22T01:16:19;13.33;;;11.17;;
19816;SDS011;68323;49.394;8.434;2023-06-22T01:18:49;14.02;;;11.82;;
19816;SDS011;68323;49.394;8.434;2023-06-22T01:21:18;14.20;;;11.90;;
19816;SDS011;68323;49.394;8.434;2023-06-22T01:26:42;14.20;;;11.70;;
19816;SDS011;68323;49.394;8.434;2023-06-22T01:29:17;17.83;;;12.30;;
19816;SDS011;68323;49.394;8.434;2023-06-22T01:31:43;14.98;;;12.70;;
19816;SDS011;68323;49.394;8.434;2023-06-22T01:34:10;15.05;;;11.98;;
19816;SDS011;68323;49.394;8.434;2023-06-22T01:36:37;14.23;;;11.63;;
19816;SDS011;68323;49.394;8.434;2023-06-22T01:39:04;14.90;;;11.77;;
19816;SDS011;68323;49.394;8.434;2023-06-22T01:41:35;14.53;;;11.87;;
19816;SDS011;68323;49.394;8.434;2023-06-22T01:44:03;15.20;;;12.77;;
19816;SDS011;68323;49.394;8.434;2023-06-22T01:46:32;17.98;;;12.75;;
19816;SDS011;68323;49.394;8.434;2023-06-22T01:48:59;22.27;;;13.43;;
19816;SDS011;68323;49.394;8.434;2023-06-22T01:51:25;15.80;;;12.60;;
19816;SDS011;68323;49.394;8.434;2023-06-22T01:53:51;18.25;;;13.77;;
19816;SDS011;68323;49.394;8.434;2023-06-22T01:56:17;17.80;;;14.67;;
19816;SDS011;68323;49.394;8.434;2023-06-22T01:59:07;18.60;;;14.48;;
19816;SDS011;68323;49.394;8.434;2023-06-22T02:01:57;21.25;;;14.90;;
19816;SDS011;68323;49.394;8.434;2023-06-22T02:04:32;17.10;;;14.52;;
19816;SDS011;68323;49.394;8.434;2023-06-22T02:07:02;16.83;;;14.60;;
19816;SDS011;68323;49.394;8.434;2023-06-22T02:09:33;17.75;;;14.63;;
19816;SDS011;68323;49.394;8.434;2023-06-22T02:12:02;16.75;;;13.82;;
19816;SDS011;68323;49.394;8.434;2023-06-22T02:14:29;18.92;;;14.50;;
19816;SDS011;68323;49.394;8.434;2023-06-22T02:16:55;21.67;;;15.17;;
19816;SDS011;68323;49.394;8.434;2023-06-22T02:19:23;17.52;;;14.13;;
19816;SDS011;68323;49.394;8.434;2023-06-22T02:21:49;17.60;;;14.37;;
19816;SDS011;68323;49.394;8.434;2023-06-22T02:24:15;19.35;;;14.98;;
19816;SDS011;68323;49.394;8.434;2023-06-22T02:26:40;19.50;;;14.87;;
19816;SDS011;68323;49.394;8.434;2023-06-22T02:29:09;18.67;;;15.38;;
19816;SDS011;68323;49.394;8.434;2023-06-22T02:31:35;18.92;;;16.17;;
19816;SDS011;68323;49.394;8.434;2023-06-22T02:34:00;23.40;;;16.52;;
19816;SDS011;68323;49.394;8.434;2023-06-22T02:36:26;21.33;;;15.00;;
19816;SDS011;68323;49.394;8.434;2023-06-22T02:38:55;20.98;;;16.05;;
19816;SDS011;68323;49.394;8.434;2023-06-22T02:41:25;18.13;;;16.23;;
19816;SDS011;68323;49.394;8.434;2023-06-22T02:43:51;21.92;;;16.83;;
19816;SDS011;68323;49.394;8.434;2023-06-22T02:46:17;20.85;;;16.38;;
19816;SDS011;68323;49.394;8.434;2023-06-22T02:48:42;21.25;;;17.77;;
19816;SDS011;68323;49.394;8.434;2023-06-22T02:51:08;19.88;;;16.45;;
19816;SDS011;68323;49.394;8.434;2023-06-22T02:53:34;22.10;;;17.83;;
19816;SDS011;68323;49.394;8.434;2023-06-22T02:56:01;21.60;;;17.90;;
19816;SDS011;68323;49.394;8.434;2023-06-22T02:58:28;21.65;;;17.38;;
19816;SDS011;68323;49.394;8.434;2023-06-22T03:00:53;23.10;;;17.73;;
19816;SDS011;68323;49.394;8.434;2023-06-22T03:03:19;20.23;;;17.88;;
19816;SDS011;68323;49.394;8.434;2023-06-22T03:05:45;21.50;;;18.23;;
19816;SDS011;68323;49.394;8.434;2023-06-22T03:08:10;25.90;;;19.37;;
19816;SDS011;68323;49.394;8.434;2023-06-22T03:10:36;22.23;;;17.63;;
19816;SDS011;68323;49.394;8.434;2023-06-22T03:13:02;23.50;;;19.48;;
19816;SDS011;68323;49.394;8.434;2023-06-22T03:15:27;24.60;;;19.65;;
19816;SDS011;68323;49.394;8.434;2023-06-22T03:17:54;24.63;;;19.37;;
19816;SDS011;68323;49.394;8.434;2023-06-22T03:20:20;22.02;;;18.98;;
19816;SDS011;68323;49.394;8.434;2023-06-22T03:22:45;27.57;;;19.57;;
19816;SDS011;68323;49.394;8.434;2023-06-22T03:25:11;26.33;;;19.77;;
19816;SDS011;68323;49.394;8.434;2023-06-22T03:27:38;23.35;;;20.02;;
19816;SDS011;68323;49.394;8.434;2023-06-22T03:30:05;23.67;;;18.67;;
19816;SDS011;68323;49.394;8.434;2023-06-22T03:32:32;25.43;;;19.37;;
19816;SDS011;68323;49.394;8.434;2023-06-22T03:34:58;23.07;;;19.13;;
19816;SDS011;68323;49.394;8.434;2023-06-22T03:37:24;24.97;;;19.40;;
19816;SDS011;68323;49.394;8.434;2023-06-22T03:39:50;22.83;;;18.07;;
19816;SDS011;68323;49.394;8.434;2023-06-22T03:42:16;20.87;;;17.50;;
19816;SDS011;68323;49.394;8.434;2023-06-22T03:44:42;21.80;;;17.77;;
19816;SDS011;68323;49.394;8.434;2023-06-22T03:47:08;19.80;;;17.33;;
19816;SDS011;68323;49.394;8.434;2023-06-22T03:49:34;20.50;;;18.00;;
19816;SDS011;68323;49.394;8.434;2023-06-22T03:52:00;18.98;;;16.95;;
19816;SDS011;68323;49.394;8.434;2023-06-22T03:54:29;20.92;;;17.52;;
19816;SDS011;68323;49.394;8.434;2023-06-22T03:56:58;19.48;;;17.13;;
19816;SDS011;68323;49.394;8.434;2023-06-22T03:59:24;21.23;;;17.45;;
19816;SDS011;68323;49.394;8.434;2023-06-22T04:01:50;18.65;;;16.17;;
19816;SDS011;68323;49.394;8.434;2023-06-22T04:04:17;19.27;;;16.75;;
19816;SDS011;68323;49.394;8.434;2023-06-22T04:06:43;23.13;;;18.08;;
19816;SDS011;68323;49.394;8.434;2023-06-22T04:09:11;17.77;;;15.90;;
19816;SDS011;68323;49.394;8.434;2023-06-22T04:11:37;18.88;;;15.10;;
19816;SDS011;68323;49.394;8.434;2023-06-22T04:14:02;19.45;;;15.18;;
19816;SDS011;68323;49.394;8.434;2023-06-22T04:16:28;17.17;;;15.18;;
19816;SDS011;68323;49.394;8.434;2023-06-22T04:18:53;20.98;;;15.48;;
19816;SDS011;68323;49.394;8.434;2023-06-22T04:21:19;19.17;;;15.48;;
19816;SDS011;68323;49.394;8.434;2023-06-22T04:23:45;17.88;;;15.80;;
19816;SDS011;68323;49.394;8.434;2023-06-22T04:26:11;21.20;;;15.95;;
19816;SDS011;68323;49.394;8.434;2023-06-22T04:28:37;21.60;;;16.42;;
19816;SDS011;68323;49.394;8.434;2023-06-22T04:31:02;22.13;;;15.75;;
19816;SDS011;68323;49.394;8.434;2023-06-22T04:33:28;21.25;;;16.52;;
19816;SDS011;68323;49.394;8.434;2023-06-22T04:35:57;20.52;;;15.80;;
19816;SDS011;68323;49.394;8.434;2023-06-22T04:38:23;17.65;;;14.80;;
19816;SDS011;68323;49.394;8.434;2023-06-22T04:40:50;19.05;;;15.60;;
19816;SDS011;68323;49.394;8.434;2023-06-22T04:43:15;18.40;;;15.13;;
19816;SDS011;68323;49.394;8.434;2023-06-22T04:45:41;16.83;;;13.98;;
19816;SDS011;68323;49.394;8.434;2023-06-22T04:48:07;18.10;;;14.32;;
19816;SDS011;68323;49.394;8.434;2023-06-22T04:50:34;21.83;;;15.48;;
19816;SDS011;68323;49.394;8.434;2023-06-22T04:53:02;17.92;;;14.10;;
19816;SDS011;68323;49.394;8.434;2023-06-22T04:55:30;17.88;;;14.25;;
19816;SDS011;68323;49.394;8.434;2023-06-22T04:57:56;19.25;;;15.20;;
19816;SDS011;68323;49.394;8.434;2023-06-22T05:00:29;18.50;;;15.30;;
19816;SDS011;68323;49.394;8.434;2023-06-22T05:02:55;18.33;;;15.50;;
19816;SDS011;68323;49.394;8.434;2023-06-22T05:05:22;15.52;;;13.93;;
19816;SDS011;68323;49.394;8.434;2023-06-22T05:07:49;20.73;;;14.95;;
19816;SDS011;68323;49.394;8.434;2023-06-22T05:10:17;21.67;;;16.20;;
19816;SDS011;68323;49.394;8.434;2023-06-22T05:12:44;16.80;;;13.38;;
19816;SDS011;68323;49.394;8.434;2023-06-22T05:15:10;17.63;;;13.45;;
19816;SDS011;68323;49.394;8.434;2023-06-22T05:17:36;17.55;;;13.05;;
19816;SDS011;68323;49.394;8.434;2023-06-22T05:20:08;15.80;;;12.45;;
19816;SDS011;68323;49.394;8.434;2023-06-22T05:22:34;18.25;;;13.27;;
19816;SDS011;68323;49.394;8.434;2023-06-22T05:25:00;16.52;;;12.90;;
19816;SDS011;68323;49.394;8.434;2023-06-22T05:27:25;15.90;;;11.70;;
19816;SDS011;68323;49.394;8.434;2023-06-22T05:29:51;13.00;;;10.95;;
19816;SDS011;68323;49.394;8.434;2023-06-22T05:32:16;13.10;;;10.70;;
19816;SDS011;68323;49.394;8.434;2023-06-22T05:34:42;11.68;;;10.50;;
19816;SDS011;68323;49.394;8.434;2023-06-22T05:37:07;10.10;;;8.93;;
19816;SDS011;68323;49.394;8.434;2023-06-22T05:39:34;11.32;;;9.15;;
19816;SDS011;68323;49.394;8.434;2023-06-22T05:42:03;9.35;;;8.02;;
19816;SDS011;68323;49.394;8.434;2023-06-22T05:44:32;14.10;;;8.88;;
19816;SDS011;68323;49.394;8.434;2023-06-22T05:46:58;12.02;;;9.02;;
19816;SDS011;68323;49.394;8.434;2023-06-22T05:49:24;11.10;;;8.27;;
19816;SDS011;68323;49.394;8.434;2023-06-22T05:51:54;9.55;;;7.93;;
19816;SDS011;68323;49.394;8.434;2023-06-22T05:54:20;11.05;;;9.30;;
19816;SDS011;68323;49.394;8.434;2023-06-22T05:56:45;14.18;;;8.25;;
19816;SDS011;68323;49.394;8.434;2023-06-22T05:59:11;11.65;;;8.98;;
19816;SDS011;68323;49.394;8.434;2023-06-22T06:01:37;12.35;;;10.95;;
19816;SDS011;68323;49.394;8.434;2023-06-22T06:04:03;11.82;;;9.80;;
19816;SDS011;68323;49.394;8.434;2023-06-22T06:06:29;13.00;;;9.88;;
19816;SDS011;68323;49.394;8.434;2023-06-22T06:08:54;16.10;;;10.95;;
19816;SDS011;68323;49.394;8.434;2023-06-22T06:11:21;12.45;;;9.48;;
19816;SDS011;68323;49.394;8.434;2023-06-22T06:13:47;11.50;;;9.65;;
19816;SDS011;68323;49.394;8.434;2023-06-22T06:16:12;11.95;;;8.65;;
19816;SDS011;68323;49.394;8.434;2023-06-22T06:18:38;13.13;;;8.25;;
19816;SDS011;68323;49.394;8.434;2023-06-22T06:21:04;8.68;;;6.85;;
19816;SDS011;68323;49.394;8.434;2023-06-22T06:23:29;11.07;;;6.93;;
19816;SDS011;68323;49.394;8.434;2023-06-22T06:25:55;8.05;;;6.32;;
19816;SDS011;68323;49.394;8.434;2023-06-22T06:28:21;9.93;;;6.35;;
19816;SDS011;68323;49.394;8.434;2023-06-22T06:30:47;8.30;;;6.65;;
19816;SDS011;68323;49.394;8.434;2023-06-22T06:33:12;9.13;;;6.85;;
19816;SDS011;68323;49.394;8.434;2023-06-22T06:35:38;10.57;;;6.30;;
19816;SDS011;68323;49.394;8.434;2023-06-22T06:38:03;8.05;;;6.32;;
19816;SDS011;68323;49.394;8.434;2023-06-22T06:40:29;7.13;;;6.43;;
19816;SDS011;68323;49.394;8.434;2023-06-22T06:42:55;9.45;;;6.18;;
19816;SDS011;68323;49.394;8.434;2023-06-22T06:45:21;9.25;;;6.50;;
19816;SDS011;68323;49.394;8.434;2023-06-22T06:47:48;9.05;;;6.35;;
19816;SDS011;68323;49.394;8.434;2023-06-22T06:50:14;6.63;;;5.97;;
19816;SDS011;68323;49.394;8.434;2023-06-22T06:52:40;12.00;;;5.97;;
19816;SDS011;68323;49.394;8.434;2023-06-22T06:55:06;7.75;;;5.85;;
19816;SDS011;68323;49.394;8.434;2023-06-22T06:57:34;10.32;;;6.40;;
19816;SDS011;68323;49.394;8.434;2023-06-22T07:00:02;6.57;;;5.90;;
19816;SDS011;68323;49.394;8.434;2023-06-22T07:02:33;6.13;;;5.30;;
19816;SDS011;68323;49.394;8.434;2023-06-22T07:04:59;10.25;;;5.63;;
19816;SDS011;68323;49.394;8.434;2023-06-22T07:07:24;7.40;;;5.40;;
19816;SDS011;68323;49.394;8.434;2023-06-22T07:09:50;6.75;;;5.65;;
19816;SDS011;68323;49.394;8.434;2023-06-22T07:12:15;7.13;;;5.47;;
19816;SDS011;68323;49.394;8.434;2023-06-22T07:14:41;7.85;;;5.50;;
19816;SDS011;68323;49.394;8.434;2023-06-22T07:17:06;8.10;;;5.60;;
19816;SDS011;68323;49.394;8.434;2023-06-22T07:19:32;10.73;;;4.97;;
19816;SDS011;68323;49.394;8.434;2023-06-22T07:21:58;7.15;;;5.32;;
19816;SDS011;68323;49.394;8.434;2023-06-22T07:24:23;5.60;;;5.05;;
19816;SDS011;68323;49.394;8.434;2023-06-22T07:26:49;5.97;;;5.28;;
19816;SDS011;68323;49.394;8.434;2023-06-22T07:29:19;6.75;;;5.07;;
19816;SDS011;68323;49.394;8.434;2023-06-22T07:31:49;8.40;;;5.40;;
19816;SDS011;68323;49.394;8.434;2023-06-22T07:34:16;7.65;;;4.85;;
19816;SDS011;68323;49.394;8.434;2023-06-22T07:36:41;6.65;;;5.03;;
19816;SDS011;68323;49.394;8.434;2023-06-22T07:39:07;7.72;;;4.80;;
19816;SDS011;68323;49.394;8.434;2023-06-22T07:41:33;10.38;;;5.28;;
19816;SDS011;68323;49.394;8.434;2023-06-22T07:43:58;7.75;;;4.90;;
19816;SDS011;68323;49.394;8.434;2023-06-22T07:46:24;6.55;;;5.18;;
19816;SDS011;68323;49.394;8.434;2023-06-22T07:48:49;7.80;;;5.10;;
19816;SDS011;68323;49.394;8.434;2023-06-22T07:51:15;7.53;;;4.82;;
19816;SDS011;68323;49.394;8.434;2023-06-22T07:53:41;7.60;;;5.10;;
19816;SDS011;68323;49.394;8.434;2023-06-22T07:56:08;9.18;;;5.50;;
19816;SDS011;68323;49.394;8.434;2023-06-22T07:58:35;7.40;;;4.85;;
19816;SDS011;68323;49.394;8.434;2023-06-22T08:01:01;9.45;;;5.32;;
19816;SDS011;68323;49.394;8.434;2023-06-22T08:03:27;6.40;;;5.10;;
19816;SDS011;68323;49.394;8.434;2023-06-22T08:05:52;5.90;;;4.90;;
19816;SDS011;68323;49.394;8.434;2023-06-22T08:08:18;7.88;;;5.07;;
19816;SDS011;68323;49.394;8.434;2023-06-22T08:10:43;5.95;;;5.10;;
19816;SDS011;68323;49.394;8.434;2023-06-22T08:13:09;4.95;;;4.43;;
19816;SDS011;68323;49.394;8.434;2023-06-22T08:15:35;6.50;;;4.80;;
19816;SDS011;68323;49.394;8.434;2023-06-22T08:18:01;6.15;;;5.10;;
19816;SDS011;68323;49.394;8.434;2023-06-22T08:20:26;7.35;;;5.25;;
19816;SDS011;68323;49.394;8.434;2023-06-22T08:22:53;5.72;;;5.05;;
19816;SDS011;68323;49.394;8.434;2023-06-22T08:25:19;7.15;;;4.80;;
19816;SDS011;68323;49.394;8.434;2023-06-22T08:27:45;8.25;;;5.60;;
19816;SDS011;68323;49.394;8.434;2023-06-22T08:30:14;7.05;;;4.88;;
19816;SDS011;68323;49.394;8.434;2023-06-22T08:32:41;6.95;;;4.95;;
19816;SDS011;68323;49.394;8.434;2023-06-22T08:35:07;6.80;;;4.90;;
19816;SDS011;68323;49.394;8.434;2023-06-22T08:37:33;5.78;;;5.05;;
19816;SDS011;68323;49.394;8.434;2023-06-22T08:40:00;7.80;;;5.40;;
19816;SDS011;68323;49.394;8.434;2023-06-22T08:42:30;5.35;;;4.80;;
19816;SDS011;68323;49.394;8.434;2023-06-22T08:44:56;5.57;;;4.85;;
19816;SDS011;68323;49.394;8.434;2023-06-22T08:47:22;6.47;;;5.43;;
19816;SDS011;68323;49.394;8.434;2023-06-22T08:49:48;6.82;;;4.97;;
19816;SDS011;68323;49.394;8.434;2023-06-22T08:52:13;9.35;;;5.32;;
19816;SDS011;68323;49.394;8.434;2023-06-22T08:54:39;7.75;;;5.35;;
19816;SDS011;68323;49.394;8.434;2023-06-22T08:57:05;5.82;;;5.28;;
19816;SDS011;68323;49.394;8.434;2023-06-22T08:59:31;10.18;;;5.55;;
19816;SDS011;68323;49.394;8.434;2023-06-22T09:01:56;7.80;;;5.13;;
19816;SDS011;68323;49.394;8.434;2023-06-22T09:04:22;11.38;;;5.18;;
19816;SDS011;68323;49.394;8.434;2023-06-22T09:06:48;7.20;;;5.15;;
19816;SDS011;68323;49.394;8.434;2023-06-22T09:09:15;6.68;;;5.57;;
19816;SDS011;68323;49.394;8.434;2023-06-22T09:11:41;10.55;;;5.38;;
19816;SDS011;68323;49.394;8.434;2023-06-22T09:14:07;6.90;;;5.28;;
19816;SDS011;68323;49.394;8.434;2023-06-22T09:16:33;9.68;;;5.65;;
19816;SDS011;68323;49.394;8.434;2023-06-22T09:18:59;10.55;;;5.57;;
19816;SDS011;68323;49.394;8.434;2023-06-22T09:21:25;7.35;;;5.05;;
19816;SDS011;68323;49.394;8.434;2023-06-22T09:23:51;8.48;;;5.18;;
19816;SDS011;68323;49.394;8.434;2023-06-22T09:26:17;8.68;;;5.70;;
19816;SDS011;68323;49.394;8.434;2023-06-22T09:28:43;9.55;;;5.95;;
19816;SDS011;68323;49.394;8.434;2023-06-22T09:31:08;6.70;;;5.95;;
19816;SDS011;68323;49.394;8.434;2023-06-22T09:33:35;12.70;;;5.28;;
19816;SDS011;68323;49.394;8.434;2023-06-22T09:36:01;8.20;;;5.53;;
19816;SDS011;68323;49.394;8.434;2023-06-22T09:38:27;7.47;;;5.50;;
19816;SDS011;68323;49.394;8.434;2023-06-22T09:40:52;8.20;;;5.88;;
19816;SDS011;68323;49.394;8.434;2023-06-22T09:43:18;8.43;;;5.85;;
19816;SDS011;68323;49.394;8.434;2023-06-22T09:45:43;10.95;;;5.72;;
19816;SDS011;68323;49.394;8.434;2023-06-22T09:48:09;7.78;;;6.00;;
19816;SDS011;68323;49.394;8.434;2023-06-22T09:50:37;7.88;;;5.65;;
19816;SDS011;68323;49.394;8.434;2023-06-22T09:53:02;6.07;;;5.40;;
19816;SDS011;68323;49.394;8.434;2023-06-22T09:55:28;9.13;;;5.82;;
19816;SDS011;68323;49.394;8.434;2023-06-22T09:57:54;8.57;;;5.57;;
19816;SDS011;68323;49.394;8.434;2023-06-22T10:00:20;10.27;;;5.57;;
19816;SDS011;68323;49.394;8.434;2023-06-22T10:02:46;8.80;;;6.18;;
19816;SDS011;68323;49.394;8.434;2023-06-22T10:05:12;8.50;;;6.15;;
19816;SDS011;68323;49.394;8.434;2023-06-22T10:07:38;14.43;;;6.53;;
19816;SDS011;68323;49.394;8.434;2023-06-22T10:10:07;10.18;;;6.45;;
19816;SDS011;68323;49.394;8.434;2023-06-22T10:12:33;9.13;;;6.20;;
19816;SDS011;68323;49.394;8.434;2023-06-22T10:14:59;12.75;;;6.22;;
19816;SDS011;68323;49.394;8.434;2023-06-22T10:17:24;12.52;;;6.40;;
19816;SDS011;68323;49.394;8.434;2023-06-22T10:19:50;10.27;;;5.97;;
19816;SDS011;68323;49.394;8.434;2023-06-22T10:22:15;11.43;;;5.72;;
19816;SDS011;68323;49.394;8.434;2023-06-22T10:24:41;9.60;;;6.13;;
19816;SDS011;68323;49.394;8.434;2023-06-22T10:27:10;11.23;;;5.88;;
19816;SDS011;68323;49.394;8.434;2023-06-22T10:29:37;8.43;;;5.85;;
19816;SDS011;68323;49.394;8.434;2023-06-22T10:32:03;13.68;;;6.15;;
19816;SDS011;68323;49.394;8.434;2023-06-22T10:34:28;9.48;;;6.03;;
19816;SDS011;68323;49.394;8.434;2023-06-22T10:36:54;7.35;;;5.65;;
19816;SDS011;68323;49.394;8.434;2023-06-22T10:39:19;11.80;;;5.85;;
19816;SDS011;68323;49.394;8.434;2023-06-22T10:41:45;12.07;;;6.53;;
19816;SDS011;68323;49.394;8.434;2023-06-22T10:44:11;10.57;;;6.00;;
19816;SDS011;68323;49.394;8.434;2023-06-22T10:46:37;7.63;;;5.88;;
19816;SDS011;68323;49.394;8.434;2023-06-22T10:49:03;12.50;;;6.00;;
19816;SDS011;68323;49.394;8.434;2023-06-22T10:51:28;12.25;;;5.97;;
19816;SDS011;68323;49.394;8.434;2023-06-22T10:53:54;9.57;;;6.00;;
19816;SDS011;68323;49.394;8.434;2023-06-22T10:56:19;10.30;;;6.03;;
19816;SDS011;68323;49.394;8.434;2023-06-22T10:58:45;11.25;;;6.60;;
19816;SDS011;68323;49.394;8.434;2023-06-22T11:01:11;10.05;;;6.22;;
19816;SDS011;68323;49.394;8.434;2023-06-22T11:03:36;10.05;;;6.20;;
19816;SDS011;68323;49.394;8.434;2023-06-22T11:06:02;12.48;;;6.15;;
19816;SDS011;68323;49.394;8.434;2023-06-22T11:08:28;11.38;;;6.22;;
19816;SDS011;68323;49.394;8.434;2023-06-22T11:10:53;12.75;;;6.18;;
19816;SDS011;68323;49.394;8.434;2023-06-22T11:13:19;11.38;;;6.15;;
19816;SDS011;68323;49.394;8.434;2023-06-22T11:15:44;12.57;;;5.95;;
19816;SDS011;68323;49.394;8.434;2023-06-22T11:18:10;12.85;;;6.28;;
19816;SDS011;68323;49.394;8.434;2023-06-22T11:20:35;10.45;;;6.00;;
19816;SDS011;68323;49.394;8.434;2023-06-22T11:23:03;8.20;;;5.47;;
19816;SDS011;68323;49.394;8.434;2023-06-22T11:25:30;12.60;;;5.90;;
19816;SDS011;68323;49.394;8.434;2023-06-22T11:27:55;12.00;;;6.38;;
19816;SDS011;68323;49.394;8.434;2023-06-22T11:30:21;9.38;;;5.85;;
19816;SDS011;68323;49.394;8.434;2023-06-22T11:32:47;14.00;;;6.25;;
19816;SDS011;68323;49.394;8.434;2023-06-22T11:35:13;10.38;;;6.40;;
19816;SDS011;68323;49.394;8.434;2023-06-22T11:37:38;9.25;;;6.30;;
19816;SDS011;68323;49.394;8.434;2023-06-22T11:40:04;11.82;;;6.20;;
19816;SDS011;68323;49.394;8.434;2023-06-22T11:42:32;8.70;;;6.03;;
19816;SDS011;68323;49.394;8.434;2023-06-22T11:44:59;10.48;;;6.00;;
19816;SDS011;68323;49.394;8.434;2023-06-22T11:47:24;12.82;;;5.93;;
19816;SDS011;68323;49.394;8.434;2023-06-22T11:49:50;13.07;;;5.93;;
19816;SDS011;68323;49.394;8.434;2023-06-22T11:52:15;9.65;;;5.53;;
19816;SDS011;68323;49.394;8.434;2023-06-22T11:54:42;10.18;;;6.13;;
19816;SDS011;68323;49.394;8.434;2023-06-22T11:57:08;8.80;;;5.93;;
19816;SDS011;68323;49.394;8.434;2023-06-22T11:59:34;15.88;;;5.88;;
19816;SDS011;68323;49.394;8.434;2023-06-22T12:01:59;24.35;;;6.13;;
19816;SDS011;68323;49.394;8.434;2023-06-22T12:04:25;12.60;;;5.70;;
19816;SDS011;68323;49.394;8.434;2023-06-22T12:06:50;9.38;;;5.70;;
19816;SDS011;68323;49.394;8.434;2023-06-22T12:09:16;16.05;;;6.32;;
19816;SDS011;68323;49.394;8.434;2023-06-22T12:11:41;12.15;;;5.85;;
19816;SDS011;68323;49.394;8.434;2023-06-22T12:14:07;14.27;;;5.80;;
19816;SDS011;68323;49.394;8.434;2023-06-22T12:16:32;8.98;;;5.28;;
19816;SDS011;68323;49.394;8.434;2023-06-22T12:18:58;13.02;;;5.72;;
19816;SDS011;68323;49.394;8.434;2023-06-22T12:21:23;10.82;;;5.68;;
19816;SDS011;68323;49.394;8.434;2023-06-22T12:23:49;13.77;;;6.30;;
19816;SDS011;68323;49.394;8.434;2023-06-22T12:26:14;11.38;;;5.57;;
19816;SDS011;68323;49.394;8.434;2023-06-22T12:28:40;11.13;;;5.88;;
19816;SDS011;68323;49.394;8.434;2023-06-22T12:31:06;13.93;;;6.20;;
19816;SDS011;68323;49.394;8.434;2023-06-22T12:33:31;10.20;;;5.57;;
19816;SDS011;68323;49.394;8.434;2023-06-22T12:35:57;10.52;;;5.80;;
19816;SDS011;68323;49.394;8.434;2023-06-22T12:38:22;12.75;;;6.07;;
19816;SDS011;68323;49.394;8.434;2023-06-22T12:40:50;13.93;;;6.13;;
19816;SDS011;68323;49.394;8.434;2023-06-22T12:43:16;13.85;;;5.95;;
19816;SDS011;68323;49.394;8.434;2023-06-22T12:45:41;13.38;;;6.00;;
19816;SDS011;68323;49.394;8.434;2023-06-22T12:48:07;13.10;;;6.10;;
19816;SDS011;68323;49.394;8.434;2023-06-22T12:50:33;13.02;;;6.13;;
19816;SDS011;68323;49.394;8.434;2023-06-22T12:52:59;20.30;;;6.30;;
19816;SDS011;68323;49.394;8.434;2023-06-22T12:55:27;12.77;;;6.10;;
19816;SDS011;68323;49.394;8.434;2023-06-22T12:57:52;12.48;;;5.60;;
19816;SDS011;68323;49.394;8.434;2023-06-22T13:00:18;11.52;;;5.80;;
19816;SDS011;68323;49.394;8.434;2023-06-22T13:02:44;13.57;;;5.90;;
19816;SDS011;68323;49.394;8.434;2023-06-22T13:05:10;13.48;;;6.10;;
19816;SDS011;68323;49.394;8.434;2023-06-22T13:07:37;20.25;;;6.22;;
19816;SDS011;68323;49.394;8.434;2023-06-22T13:10:02;13.15;;;6.47;;
19816;SDS011;68323;49.394;8.434;2023-06-22T13:12:28;12.20;;;6.20;;
19816;SDS011;68323;49.394;8.434;2023-06-22T13:14:54;11.50;;;6.13;;
19816;SDS011;68323;49.394;8.434;2023-06-22T13:17:20;12.23;;;6.32;;
19816;SDS011;68323;49.394;8.434;2023-06-22T13:19:46;11.05;;;6.03;;
19816;SDS011;68323;49.394;8.434;2023-06-22T13:24:57;12.48;;;5.80;;
19816;SDS011;68323;49.394;8.434;2023-06-22T13:27:23;15.90;;;6.05;;
19816;SDS011;68323;49.394;8.434;2023-06-22T13:29:49;13.82;;;6.18;;
19816;SDS011;68323;49.394;8.434;2023-06-22T13:32:15;12.27;;;6.38;;
19816;SDS011;68323;49.394;8.434;2023-06-22T13:34:41;12.25;;;6.00;;
19816;SDS011;68323;49.394;8.434;2023-06-22T13:37:07;14.43;;;6.15;;
19816;SDS011;68323;49.394;8.434;2023-06-22T13:39:33;12.32;;;6.40;;
19816;SDS011;68323;49.394;8.434;2023-06-22T13:41:58;15.85;;;6.03;;
19816;SDS011;68323;49.394;8.434;2023-06-22T13:44:24;14.10;;;6.40;;
19816;SDS011;68323;49.394;8.434;2023-06-22T13:46:53;12.50;;;5.78;;
19816;SDS011;68323;49.394;8.434;2023-06-22T13:49:21;12.30;;;6.75;;
19816;SDS011;68323;49.394;8.434;2023-06-22T13:51:47;14.15;;;6.32;;
19816;SDS011;68323;49.394;8.434;2023-06-22T13:54:13;14.93;;;6.32;;
19816;SDS011;68323;49.394;8.434;2023-06-22T13:56:39;16.05;;;6.40;;
19816;SDS011;68323;49.394;8.434;2023-06-22T13:59:05;14.00;;;6.50;;
19816;SDS011;68323;49.394;8.434;2023-06-22T14:01:34;15.25;;;6.57;;
19816;SDS011;68323;49.394;8.434;2023-06-22T14:03:59;11.60;;;6.20;;
19816;SDS011;68323;49.394;8.434;2023-06-22T14:06:26;16.25;;;6.57;;
19816;SDS011;68323;49.394;8.434;2023-06-22T14:08:52;13.13;;;6.75;;
19816;SDS011;68323;49.394;8.434;2023-06-22T14:11:17;15.93;;;6.90;;
19816;SDS011;68323;49.394;8.434;2023-06-22T14:13:43;13.60;;;6.75;;
19816;SDS011;68323;49.394;8.434;2023-06-22T14:16:08;15.50;;;6.88;;
19816;SDS011;68323;49.394;8.434;2023-06-22T14:18:34;19.92;;;7.20;;
19816;SDS011;68323;49.394;8.434;2023-06-22T14:21:00;15.85;;;6.95;;
19816;SDS011;68323;49.394;8.434;2023-06-22T14:23:26;17.50;;;6.53;;
19816;SDS011;68323;49.394;8.434;2023-06-22T14:25:52;15.07;;;6.63;;
19816;SDS011;68323;49.394;8.434;2023-06-22T14:28:18;16.95;;;7.55;;
19816;SDS011;68323;49.394;8.434;2023-06-22T14:30:43;13.68;;;7.38;;
19816;SDS011;68323;49.394;8.434;2023-06-22T14:33:09;18.65;;;7.45;;
19816;SDS011;68323;49.394;8.434;2023-06-22T14:35:34;14.50;;;7.13;;
19816;SDS011;68323;49.394;8.434;2023-06-22T14:38:00;13.30;;;7.40;;
19816;SDS011;68323;49.394;8.434;2023-06-22T14:40:26;16.42;;;8.07;;